Decoded Metar for KAOH (LIMA in OH, USA) (IATA:AOH) | Meteo·Mobile Aviation Weather
aviador You're here:

KAOH Decoded Metar

LIMA in OH, USA
Report Time2019-01-20 10:53:00
UTC Time2019-01-20 11:27:36
Flight Rules mvfr MVFR
Wind340° at 16 Gusting to 24 kt
W.Decomp.*RWY 32: 14.4 kt HW 7.0 kt RCW
RWY 28: 6.5 kt HW 14.6 kt RCW
W.Rank340° ranks 26
Current wind is above 340° avg. (7.2)
Visibility9999 m
Phenomena:Light Snow
Clouds:Overcast 024 Hf
Expected CloudBase > 1,600 ft AGL from Temp-Dew spread
Ceiling2,400 ft
Temp-13°C (ISA -26)
Dew Point-17°C (72% RH)
AAT-22.2°C
QNH1015 hPa
Density Alt-2,346 ft
Elevation971 ft
Report Wrong Elevation
Raw Report
KAOH 201053Z AUTO 34016G24KT 8SM -SN OVC024 M13/M17 A2997 RMK AO2
PK WND 36031/1012 SLP165 P0000 T11331167 $=

Extra information for KAOH:More info

Metar Taf Metar & Taf Last 4 Metars F.Rules Stats Wind Profile Meteogram Temp Stats Airport Information Weather charts Add Link Nearby VenuesMetar ALERT Operation Metar Decoded Social comments

AIRNAV info for KAOH